Flight NumberIRM056 Date12.06.2018
Departure AirportVTBS Arrival AirportOIIE
Departure Time11.54Arrival Time18.22
Pilot In CommandSaeed TabaTabaei Block Time6.50 Hours
Pilot Rating100 % AircraftEP-MNF [ A310-300ET ]


Distance2,971.00 Nm. Passengers202
Fuel Used28,489 Kg. Cargo16689 Kg
Expense Details Income Details
Fuel Cost32,880 v$Ticket Sales105,040 v$
Pilot Salary12,502 v$ Cargo income34,493.00 v$
Crew Salary1,010 v$ Bonus20,838 v$
Gross Profit112,526 v$ ( 1,125,260 v$ )

Client Versionv2.2.0.rc3 Max Simrate1
Flight Critique Pilot CommentsOIIE 122100Z 36011G21KT 9999 TS FEW040 SCT045CB SCT100 20/11 Q1007// RADA2V ILS RWY 29R

[ Back ]
FSA VA Integration Pack
Copyright © 2010 FSAirlines.net. Version : 0.1.1